Time;durP1;ratioP1;P1;durP2;ratioP2;P2;SDS_P1;SDS_P2;PMS_P1;PMS_P2;Temp;Humidity;BMP_temperature;BMP_pressure;BME280_temperature;BME280_humidity;BME280_pressure;Samples;Min_cycle;Max_cycle;Signal;HPM_P1;HPM_P2
2021/03/25 00:00:39;;;;;;;28.93;15.60;;;;;;;6.68;73.07;96669.38;5022172;28;20538;-88
2021/03/25 00:03:08;;;;;;;29.20;16.57;;;;;;;6.63;73.15;96670.19;5022382;28;20498;-88
2021/03/25 00:05:34;;;;;;;23.10;14.40;;;;;;;6.59;73.70;96667.03;5023517;28;20487;-85
2021/03/25 00:08:02;;;;;;;33.43;16.87;;;;;;;6.56;73.69;96664.66;5026848;28;20478;-87
2021/03/25 00:10:31;;;;;;;29.73;14.33;;;;;;;6.51;73.93;96660.09;5023295;28;20432;-86
2021/03/25 00:12:58;;;;;;;29.80;15.07;;;;;;;6.42;74.38;96650.44;5023495;28;20555;-87
2021/03/25 00:15:25;;;;;;;30.33;14.83;;;;;;;6.40;74.58;96658.97;5023667;28;20931;-87
2021/03/25 00:17:51;;;;;;;29.33;15.10;;;;;;;6.36;74.37;96650.47;5022844;28;20501;-87
2021/03/25 00:20:18;;;;;;;28.90;16.37;;;;;;;6.38;74.81;96652.66;5023315;28;20511;-86
2021/03/25 00:22:44;;;;;;;23.17;14.10;;;;;;;6.31;74.89;96656.63;5022474;28;20549;-86
2021/03/25 00:25:14;;;;;;;28.63;14.30;;;;;;;6.25;75.42;96649.88;5021894;28;20448;-86
2021/03/25 00:27:41;;;;;;;30.60;15.70;;;;;;;6.21;75.54;96649.44;5022465;28;20868;-88
2021/03/25 00:30:09;;;;;;;32.17;16.43;;;;;;;6.13;75.80;96643.19;5022139;28;20467;-88
2021/03/25 00:32:35;;;;;;;27.93;15.33;;;;;;;6.12;75.72;96645.16;5022240;28;20646;-89
2021/03/25 00:35:03;;;;;;;31.87;16.50;;;;;;;6.08;76.19;96644.69;5022447;28;20970;-89
2021/03/25 00:37:29;;;;;;;27.03;14.40;;;;;;;6.06;76.68;96639.13;5022548;28;20418;-89
2021/03/25 00:39:55;;;;;;;29.97;15.77;;;;;;;6.02;77.10;96636.00;5022351;28;20526;-89
2021/03/25 00:42:22;;;;;;;26.67;14.93;;;;;;;6.00;77.10;96637.72;5022367;28;20441;-89
2021/03/25 00:44:48;;;;;;;30.37;15.67;;;;;;;5.96;77.37;96639.94;5022408;28;20506;-89
2021/03/25 00:47:14;;;;;;;43.13;15.40;;;;;;;5.92;77.93;96630.25;5022138;28;20535;-89
2021/03/25 00:49:40;;;;;;;33.60;17.17;;;;;;;5.87;78.31;96631.03;5022190;28;20495;-86
2021/03/25 00:52:07;;;;;;;33.10;16.10;;;;;;;5.87;78.68;96635.66;5021920;28;20451;-86
2021/03/25 00:54:33;;;;;;;31.63;14.93;;;;;;;5.86;78.79;96634.19;5021718;28;20507;-86
2021/03/25 00:56:59;;;;;;;27.90;15.60;;;;;;;5.84;78.73;96623.97;5021829;28;20501;-86
2021/03/25 00:59:26;;;;;;;27.57;15.20;;;;;;;5.82;78.51;96625.72;5021751;28;20507;-86
2021/03/25 01:01:52;;;;;;;25.27;15.00;;;;;;;5.85;79.17;96627.38;5021445;28;20468;-87
2021/03/25 01:04:19;;;;;;;28.13;14.10;;;;;;;5.79;79.38;96616.00;5021515;28;20468;-86
2021/03/25 01:06:45;;;;;;;33.90;17.10;;;;;;;5.76;79.64;96617.72;5022203;28;20451;-86
2021/03/25 01:09:15;;;;;;;29.00;15.43;;;;;;;5.75;79.45;96624.31;5021470;28;20419;-86
2021/03/25 01:11:41;;;;;;;31.50;16.13;;;;;;;5.73;79.38;96615.31;5021213;28;20432;-86
2021/03/25 01:14:10;;;;;;;27.23;14.40;;;;;;;5.66;80.21;96610.53;5021336;28;20547;-86
2021/03/25 01:16:40;;;;;;;29.80;15.70;;;;;;;5.62;80.55;96615.41;5021959;28;20452;-86
2021/03/25 01:19:09;;;;;;;35.47;15.90;;;;;;;5.65;79.88;96609.06;5019984;28;20468;-86
2021/03/25 01:21:35;;;;;;;29.40;15.53;;;;;;;5.62;79.86;96607.38;5021364;28;20485;-86
2021/03/25 01:24:02;;;;;;;31.50;15.87;;;;;;;5.65;79.85;96609.06;5021501;28;20525;-87
2021/03/25 01:26:29;;;;;;;30.23;17.07;;;;;;;5.62;80.35;96599.34;5021503;28;20470;-86
2021/03/25 01:28:59;;;;;;;32.20;15.00;;;;;;;5.62;79.96;96605.44;5021832;28;20484;-86
2021/03/25 01:31:26;;;;;;;26.70;15.67;;;;;;;5.64;79.13;96608.31;5021563;28;20440;-86
2021/03/25 01:33:53;;;;;;;24.80;14.50;;;;;;;5.65;79.28;96599.09;5021408;28;21059;-85
2021/03/25 01:36:20;;;;;;;26.87;14.37;;;;;;;5.61;79.14;96600.56;5021067;28;20452;-86
2021/03/25 01:38:46;;;;;;;25.63;13.77;;;;;;;5.62;79.40;96594.00;5020438;28;20487;-85
2021/03/25 01:41:12;;;;;;;24.67;13.50;;;;;;;5.60;79.63;96597.19;5022083;28;20508;-85
2021/03/25 01:43:41;;;;;;;27.47;14.13;;;;;;;5.54;80.12;96593.13;5021418;28;20480;-86
2021/03/25 01:46:16;;;;;;;26.53;14.47;;;;;;;5.51;80.12;96594.13;5020939;28;20468;-86
2021/03/25 01:48:45;;;;;;;26.47;15.33;;;;;;;5.46;80.36;96589.53;5021047;28;20498;-85
2021/03/25 01:51:27;;;;;;;28.20;14.27;;;;;;;5.45;80.22;96594.13;5020575;28;20937;-85
2021/03/25 01:54:12;;;;;;;27.00;13.47;;;;;;;5.44;80.48;96587.34;5030131;28;20502;-87
2021/03/25 01:56:57;;;;;;;28.83;14.07;;;;;;;5.39;80.65;96583.50;5039428;28;20424;-87
2021/03/25 01:59:56;;;;;;;23.70;14.90;;;;;;;5.39;80.69;96586.16;5039585;28;20461;-90
2021/03/25 02:02:33;;;;;;;23.93;13.40;;;;;;;5.33;81.27;96590.09;5020429;28;20504;-86
2021/03/25 02:05:07;;;;;;;26.50;14.57;;;;;;;5.29;81.32;96585.03;5020529;28;20466;-86
2021/03/25 02:07:45;;;;;;;27.00;16.33;;;;;;;5.29;81.42;96577.00;5020859;28;20442;-86
2021/03/25 02:10:19;;;;;;;26.47;15.27;;;;;;;5.31;81.80;96577.25;5020399;28;20448;-87
2021/03/25 02:12:54;;;;;;;24.10;12.90;;;;;;;5.30;81.63;96577.72;5020374;28;20510;-85
2021/03/25 02:15:27;;;;;;;27.40;12.90;;;;;;;5.28;81.54;96572.91;5020963;28;20433;-86
2021/03/25 02:17:57;;;;;;;25.27;14.53;;;;;;;5.26;82.22;96571.94;5020152;28;20543;-86
2021/03/25 02:20:58;;;;;;;21.93;12.10;;;;;;;5.28;82.03;96561.47;5020724;28;20502;-84
2021/03/25 02:24:01;;;;;;;23.83;13.10;;;;;;;5.31;82.17;96563.13;5017534;28;20452;-86
2021/03/25 02:26:31;;;;;;;24.20;12.37;;;;;;;5.34;82.21;96567.50;5020379;28;21048;-86
2021/03/25 02:29:13;;;;;;;16.87;11.03;;;;;;;5.34;81.99;96562.16;5019693;28;20918;-86
2021/03/25 02:31:44;;;;;;;21.50;12.23;;;;;;;5.32;82.25;96561.94;5020166;28;20447;-86
2021/03/25 02:34:15;;;;;;;24.30;12.10;;;;;;;5.31;82.17;96561.19;5019991;28;21008;-86
2021/03/25 02:36:46;;;;;;;19.87;12.47;;;;;;;5.31;82.51;96557.78;5019789;28;20470;-87
2021/03/25 02:39:17;;;;;;;20.23;11.47;;;;;;;5.29;82.60;96560.94;5020276;28;20571;-89
2021/03/25 02:41:48;;;;;;;35.23;13.13;;;;;;;5.25;82.10;96557.13;5020323;28;20468;-88
2021/03/25 02:44:25;;;;;;;19.27;11.97;;;;;;;5.22;82.07;96564.19;5020606;28;20440;-90
2021/03/25 02:46:56;;;;;;;19.87;11.50;;;;;;;5.16;82.45;96560.09;5020116;28;20498;-89
2021/03/25 02:49:27;;;;;;;20.07;12.33;;;;;;;5.19;82.69;96567.88;5019697;28;20460;-88
2021/03/25 02:52:01;;;;;;;20.07;11.67;;;;;;;5.12;82.85;96554.28;5020242;28;20442;-89
2021/03/25 02:54:28;;;;;;;19.00;10.30;;;;;;;5.08;83.15;96551.16;5019717;28;20452;-88
2021/03/25 02:56:57;;;;;;;16.20;9.50;;;;;;;5.05;83.94;96550.22;5023145;28;20503;-88
2021/03/25 02:59:27;;;;;;;20.33;11.13;;;;;;;5.07;83.74;96557.75;5022668;28;20543;-87
2021/03/25 03:01:58;;;;;;;16.30;9.70;;;;;;;5.06;83.82;96550.94;5021857;28;20440;-87
2021/03/25 03:04:27;;;;;;;17.20;9.27;;;;;;;5.05;83.82;96552.16;5020261;28;20464;-89
2021/03/25 03:07:01;;;;;;;15.83;11.30;;;;;;;5.09;83.60;96553.34;5019532;28;20880;-89
2021/03/25 03:09:37;;;;;;;17.07;9.33;;;;;;;5.03;83.64;96552.66;5019326;28;20561;-89
2021/03/25 03:12:09;;;;;;;16.17;10.07;;;;;;;4.96;83.81;96550.53;5019094;28;20432;-89
2021/03/25 03:14:40;;;;;;;17.83;10.57;;;;;;;4.94;84.17;96550.31;5019448;28;20478;-88
2021/03/25 03:17:12;;;;;;;22.50;12.20;;;;;;;4.87;84.41;96558.84;5019462;28;20491;-88
2021/03/25 03:19:45;;;;;;;21.17;11.80;;;;;;;4.81;84.30;96548.22;5019321;28;20472;-89
2021/03/25 03:22:11;;;;;;;17.73;10.33;;;;;;;4.81;84.22;96552.81;5019331;28;20456;-89
2021/03/25 03:24:38;;;;;;;17.60;11.10;;;;;;;4.81;84.29;96550.88;5019097;28;20903;-88
2021/03/25 03:27:11;;;;;;;22.23;11.47;;;;;;;4.83;84.14;96542.34;5019600;28;21013;-88
2021/03/25 03:29:39;;;;;;;24.00;11.63;;;;;;;4.84;84.21;96555.25;5018916;28;20464;-89
2021/03/25 03:32:17;;;;;;;24.33;12.57;;;;;;;4.80;84.16;96551.38;5019231;28;20417;-88
2021/03/25 03:34:46;;;;;;;21.70;12.60;;;;;;;4.78;83.99;96551.16;5018963;28;20436;-88
2021/03/25 03:37:19;;;;;;;19.93;11.93;;;;;;;4.79;84.19;96550.63;5019010;28;20792;-88
2021/03/25 03:39:46;;;;;;;24.60;12.60;;;;;;;4.77;84.09;96555.03;5019588;28;20554;-88
2021/03/25 03:42:15;;;;;;;20.30;12.50;;;;;;;4.67;84.02;96541.25;5022064;28;20526;-88
2021/03/25 03:44:45;;;;;;;20.43;12.40;;;;;;;4.56;84.54;96548.59;5024152;28;20444;-89
2021/03/25 03:47:15;;;;;;;20.93;12.83;;;;;;;4.48;84.93;96551.06;5023616;28;20444;-89
2021/03/25 03:49:45;;;;;;;22.90;13.40;;;;;;;4.41;85.29;96545.53;5023683;28;20494;-88
2021/03/25 03:52:15;;;;;;;16.30;10.80;;;;;;;4.38;85.32;96549.94;5022226;28;20436;-89
2021/03/25 03:54:44;;;;;;;18.67;12.27;;;;;;;4.38;85.51;96547.25;5022449;28;20468;-89
2021/03/25 03:57:19;;;;;;;18.90;12.47;;;;;;;4.33;85.96;96551.41;5023685;28;20498;-87
2021/03/25 03:59:50;;;;;;;18.37;11.10;;;;;;;4.28;86.06;96551.44;5022720;28;20455;-87
2021/03/25 04:02:25;;;;;;;21.07;12.00;;;;;;;4.26;86.15;96549.25;5023131;28;20858;-86
2021/03/25 04:05:02;;;;;;;16.03;11.30;;;;;;;4.29;86.17;96548.25;5022949;28;20829;-87
2021/03/25 04:07:33;;;;;;;17.60;10.43;;;;;;;4.28;85.91;96546.81;5023017;28;20527;-86
2021/03/25 04:10:12;;;;;;;23.47;10.87;;;;;;;4.16;86.25;96539.34;5023076;28;20455;-90
2021/03/25 04:12:41;;;;;;;21.03;11.60;;;;;;;4.15;86.20;96546.63;5023653;28;20416;-89
2021/03/25 04:15:14;;;;;;;21.87;12.53;;;;;;;4.15;86.37;96548.56;5023827;28;20478;-88
2021/03/25 04:17:45;;;;;;;16.90;11.07;;;;;;;4.11;86.10;96543.47;5023280;28;20395;-88
2021/03/25 04:20:17;;;;;;;19.20;12.00;;;;;;;4.09;86.40;96547.88;5022763;28;20496;-86
2021/03/25 04:22:46;;;;;;;19.03;10.53;;;;;;;4.09;86.46;96539.84;5022456;28;20443;-85
2021/03/25 04:25:19;;;;;;;18.10;9.83;;;;;;;4.08;86.56;96549.81;5022897;28;20440;-86
2021/03/25 04:27:51;;;;;;;14.87;10.80;;;;;;;4.09;86.27;96537.19;5022310;28;20462;-87
2021/03/25 04:30:22;;;;;;;20.30;11.27;;;;;;;4.10;86.26;96541.31;5022335;28;20420;-86
2021/03/25 04:32:50;;;;;;;16.37;10.30;;;;;;;4.06;86.65;96543.50;5022217;28;20421;-89
2021/03/25 04:35:17;;;;;;;20.83;11.33;;;;;;;4.09;86.55;96545.19;5021991;28;20532;-89
2021/03/25 04:37:44;;;;;;;17.77;12.50;;;;;;;4.10;86.43;96544.00;5022316;28;20947;-89
2021/03/25 04:40:15;;;;;;;20.13;10.17;;;;;;;4.11;86.62;96538.13;5022163;28;20488;-89
2021/03/25 04:42:42;;;;;;;17.20;10.80;;;;;;;4.08;86.98;96543.72;5022977;28;20460;-89
2021/03/25 04:45:17;;;;;;;25.30;11.53;;;;;;;4.07;87.11;96540.34;5024773;28;20511;-90
2021/03/25 04:47:46;;;;;;;17.10;9.80;;;;;;;4.09;87.12;96545.19;5025518;28;20930;-89
2021/03/25 04:50:21;;;;;;;14.33;9.40;;;;;;;4.02;86.99;96541.09;5022311;28;20466;-90
2021/03/25 04:52:47;;;;;;;15.83;9.93;;;;;;;4.03;87.18;96542.56;5032933;28;20416;-88
2021/03/25 04:55:20;;;;;;;20.73;11.77;;;;;;;3.98;87.66;96545.97;5040873;28;20464;-88
2021/03/25 04:57:52;;;;;;;22.40;10.17;;;;;;;3.98;87.69;96545.97;5033428;28;20455;-89
2021/03/25 05:00:25;;;;;;;13.63;9.20;;;;;;;3.96;87.75;96537.72;5025169;28;20416;-89
2021/03/25 05:02:51;;;;;;;20.73;10.40;;;;;;;3.96;87.90;96534.31;5025346;28;20436;-89
2021/03/25 05:05:23;;;;;;;20.90;10.00;;;;;;;4.00;87.73;96540.13;5025247;28;20484;-89
2021/03/25 05:07:55;;;;;;;16.50;8.50;;;;;;;4.00;87.80;96527.53;5025496;28;20459;-88
2021/03/25 05:10:26;;;;;;;15.53;9.43;;;;;;;4.04;87.84;96540.63;5026108;28;20908;-89
2021/03/25 05:12:54;;;;;;;14.43;9.30;;;;;;;4.09;87.50;96545.19;5025306;28;20424;-89
2021/03/25 05:15:22;;;;;;;16.23;8.63;;;;;;;4.13;87.59;96537.66;5024112;28;20452;-86
2021/03/25 05:17:54;;;;;;;16.43;9.50;;;;;;;4.14;87.53;96536.44;5024550;28;20462;-85
2021/03/25 05:20:23;;;;;;;16.63;9.27;;;;;;;4.16;87.29;96544.69;5023794;28;20413;-90
2021/03/25 05:23:01;;;;;;;14.20;9.60;;;;;;;4.22;87.30;96550.72;5023509;28;20444;-87
2021/03/25 05:25:35;;;;;;;20.73;11.10;;;;;;;4.36;87.12;96547.00;5024441;28;20420;-89
2021/03/25 05:28:07;;;;;;;15.77;9.57;;;;;;;4.47;85.92;96551.56;5024469;28;20436;-90
2021/03/25 05:30:37;;;;;;;17.50;9.67;;;;;;;4.55;85.55;96555.16;5024436;28;20447;-89
2021/03/25 05:33:08;;;;;;;16.20;9.57;;;;;;;4.61;85.17;96551.25;5024146;28;20506;-87
2021/03/25 05:35:38;;;;;;;19.13;10.50;;;;;;;4.66;84.75;96557.78;5023688;28;20463;-89
2021/03/25 05:38:04;;;;;;;22.73;12.27;;;;;;;4.77;84.76;96547.75;5024291;28;20456;-90
2021/03/25 05:40:35;;;;;;;22.07;10.17;;;;;;;4.85;83.97;96556.66;5032965;28;20449;-89
2021/03/25 05:43:23;;;;;;;15.47;9.57;;;;;;;5.04;83.22;96562.16;5025750;28;20435;-89
2021/03/25 05:46:01;;;;;;;13.20;8.10;;;;;;;5.19;82.48;96557.16;5028464;28;20496;-89
2021/03/25 05:49:02;;;;;;;14.50;9.03;;;;;;;5.25;81.60;96559.78;5035109;28;20520;-88
2021/03/25 05:51:38;;;;;;;13.33;9.20;;;;;;;5.38;81.30;96559.94;5024862;28;20455;-88
2021/03/25 05:54:18;;;;;;;14.20;9.47;;;;;;;5.52;80.72;96566.84;5037200;28;20466;-88
2021/03/25 05:57:00;;;;;;;15.73;10.60;;;;;;;5.72;80.19;96571.78;5035149;28;20459;-90
2021/03/25 05:59:34;;;;;;;15.77;9.23;;;;;;;5.82;78.92;96574.84;5023389;28;20503;-90
2021/03/25 06:02:05;;;;;;;13.13;8.43;;;;;;;5.98;78.64;96565.22;5023511;28;20490;-90
2021/03/25 06:04:34;;;;;;;17.53;9.60;;;;;;;6.15;77.88;96576.44;5022991;28;20435;-91
2021/03/25 06:07:28;;;;;;;17.03;9.43;;;;;;;6.54;76.95;96570.63;5023999;28;20444;-90
2021/03/25 06:10:08;;;;;;;14.03;10.00;;;;;;;6.97;74.95;96584.63;5023966;28;20516;-87
2021/03/25 06:12:52;;;;;;;13.73;9.40;;;;;;;7.38;72.34;96576.94;5022321;28;20402;-87
2021/03/25 06:15:32;;;;;;;21.60;10.03;;;;;;;7.86;69.87;96588.56;5022707;28;20952;-90
2021/03/25 06:18:08;;;;;;;17.40;10.30;;;;;;;8.14;68.93;96577.31;5023960;28;20422;-88
2021/03/25 06:20:49;;;;;;;16.90;9.30;;;;;;;8.44;67.60;96585.78;5023223;28;20463;-89
2021/03/25 06:23:30;;;;;;;11.20;8.13;;;;;;;8.78;66.64;96585.78;5023646;28;20489;-89
2021/03/25 06:26:21;;;;;;;16.30;9.13;;;;;;;9.19;65.09;96590.50;5028615;28;20446;-87
2021/03/25 06:28:51;;;;;;;16.70;9.30;;;;;;;9.79;63.46;96588.31;5038635;28;20453;-88
2021/03/25 06:31:26;;;;;;;13.20;9.10;;;;;;;10.00;62.13;96596.34;5038796;28;20445;-89
2021/03/25 06:34:01;;;;;;;12.83;8.37;;;;;;;10.16;61.11;96598.63;5038381;28;20442;-87
2021/03/25 06:36:54;;;;;;;14.23;8.77;;;;;;;10.13;60.56;96596.25;5028102;28;20547;-86
2021/03/25 06:39:37;;;;;;;15.57;8.53;;;;;;;10.25;60.12;96599.38;5012993;28;20975;-90
2021/03/25 06:42:22;;;;;;;12.77;9.40;;;;;;;10.39;59.20;96603.44;5023105;28;20401;-90
2021/03/25 06:44:54;;;;;;;15.53;8.40;;;;;;;10.43;59.06;96601.13;5023799;28;20424;-89
2021/03/25 06:47:42;;;;;;;12.87;9.00;;;;;;;10.58;58.52;96612.69;5023056;28;20527;-89
2021/03/25 06:50:09;;;;;;;15.97;9.33;;;;;;;10.78;57.97;96603.03;5009781;28;20507;-89
2021/03/25 06:52:37;;;;;;;14.87;8.77;;;;;;;10.87;58.10;96604.53;5024068;28;20452;-89
2021/03/25 06:55:13;;;;;;;13.27;9.10;;;;;;;11.35;56.04;96614.34;5024303;28;20492;-92
2021/03/25 06:57:50;;;;;;;15.43;10.00;;;;;;;11.39;55.72;96606.59;5023073;28;20474;-90
2021/03/25 07:00:19;;;;;;;39.60;10.87;;;;;;;11.46;55.54;96615.97;5023132;28;20468;-90
2021/03/25 07:02:47;;;;;;;20.07;9.73;;;;;;;11.52;55.40;96614.53;5022687;28;20434;-91
2021/03/25 07:05:23;;;;;;;19.20;9.13;;;;;;;11.59;54.86;96610.41;5022670;28;20416;-92
2021/03/25 07:07:57;;;;;;;26.83;8.77;;;;;;;11.79;53.84;96621.06;5023548;28;20511;-91
2021/03/25 07:10:25;;;;;;;28.93;11.57;;;;;;;11.68;53.86;96618.66;5023346;28;20436;-91
2021/03/25 07:12:51;;;;;;;23.93;8.80;;;;;;;11.98;53.23;96617.97;5023185;28;20426;-90
2021/03/25 07:15:24;;;;;;;28.13;9.93;;;;;;;12.12;52.70;96619.19;5023222;28;20419;-89
2021/03/25 07:17:53;;;;;;;15.53;8.40;;;;;;;12.24;52.25;96616.84;5028326;28;20574;-90
2021/03/25 07:20:25;;;;;;;25.83;9.93;;;;;;;12.21;52.27;96618.66;5023373;28;20995;-91
2021/03/25 07:23:07;;;;;;;34.63;9.57;;;;;;;12.40;52.45;96623.66;5022587;28;20787;-92
2021/03/25 07:25:37;;;;;;;32.70;10.27;;;;;;;12.43;51.21;96622.59;5021686;28;20428;-90
2021/03/25 07:28:10;;;;;;;24.00;9.50;;;;;;;12.87;50.82;96620.94;5024043;28;20456;-92
2021/03/25 07:30:47;;;;;;;14.23;8.20;;;;;;;13.41;48.76;96621.41;5023037;28;20516;-93
2021/03/25 07:33:16;;;;;;;27.73;9.00;;;;;;;13.19;48.64;96628.41;5024122;28;20464;-94
2021/03/25 07:35:45;;;;;;;20.20;9.07;;;;;;;13.36;48.11;96617.66;5024002;28;20443;-93
2021/03/25 07:38:22;;;;;;;29.70;10.87;;;;;;;13.41;48.61;96624.09;5023602;28;20468;-91
2021/03/25 07:41:04;;;;;;;41.43;8.33;;;;;;;13.40;48.71;96628.13;5024251;28;20416;-91
2021/03/25 07:43:49;;;;;;;14.33;8.80;;;;;;;13.49;48.36;96622.09;5023088;28;20445;-91
2021/03/25 07:46:20;;;;;;;18.77;9.70;;;;;;;13.35;48.93;96629.03;5027131;28;20439;-90
2021/03/25 07:48:57;;;;;;;19.50;9.77;;;;;;;13.27;48.96;96628.38;5023870;28;20419;-92
2021/03/25 07:51:23;;;;;;;24.00;10.63;;;;;;;13.55;48.20;96630.00;5026730;28;20550;-90
2021/03/25 07:54:08;;;;;;;17.90;8.60;;;;;;;13.41;48.52;96632.97;5026314;28;20477;-93
2021/03/25 07:56:35;;;;;;;21.73;9.40;;;;;;;13.45;48.58;96631.88;5025877;28;20446;-92
2021/03/25 07:59:02;;;;;;;16.27;8.50;;;;;;;13.66;48.95;96641.09;5037112;28;20488;-92
2021/03/25 08:01:28;;;;;;;19.10;8.77;;;;;;;13.68;48.77;96632.44;5037148;28;20452;-93
2021/03/25 08:03:57;;;;;;;14.03;9.20;;;;;;;13.44;49.86;96633.16;5033527;28;20437;-94
2021/03/25 08:06:27;;;;;;;20.87;9.57;;;;;;;13.72;49.77;96636.19;5029072;28;20488;-95
2021/03/25 08:09:02;;;;;;;18.37;8.90;;;;;;;14.11;48.50;96634.59;5027090;28;20459;-94
2021/03/25 08:11:30;;;;;;;19.00;10.37;;;;;;;14.22;48.67;96633.41;5027967;28;20432;-92
2021/03/25 08:13:59;;;;;;;19.80;8.03;;;;;;;14.30;48.48;96634.78;5023906;28;20483;-92
2021/03/25 08:16:27;;;;;;;17.43;10.10;;;;;;;14.45;48.14;96640.06;5025175;28;20432;-92
2021/03/25 08:19:06;;;;;;;18.03;10.03;;;;;;;14.30;49.07;96639.47;5023804;28;20571;-92
2021/03/25 08:21:47;;;;;;;18.20;9.50;;;;;;;14.09;49.36;96636.44;5022840;28;20504;-90
2021/03/25 08:24:52;;;;;;;14.27;9.50;;;;;;;14.04;49.90;96640.06;5023882;28;20462;-90
2021/03/25 08:27:35;;;;;;;16.50;10.00;;;;;;;14.18;49.05;96635.81;5025253;28;20432;-91
2021/03/25 08:30:25;;;;;;;14.57;8.93;;;;;;;14.03;49.17;96636.66;5032686;28;20503;-93
2021/03/25 08:33:01;;;;;;;26.23;9.40;;;;;;;13.89;49.93;96635.50;5033209;28;20443;-92
2021/03/25 08:38:51;;;;;;;18.70;9.20;;;;;;;14.02;50.13;96631.78;5027444;28;20455;-91
2021/03/25 08:41:24;;;;;;;22.87;9.87;;;;;;;14.00;50.14;96631.63;5029533;28;20569;-93
2021/03/25 08:43:57;;;;;;;18.87;9.83;;;;;;;13.99;50.88;96639.06;5036563;28;20499;-93
2021/03/25 08:46:31;;;;;;;19.53;8.50;;;;;;;14.00;51.06;96631.63;5034076;28;20427;-93
2021/03/25 08:49:02;;;;;;;13.80;7.60;;;;;;;13.97;51.06;96638.16;5029035;28;20452;-90
2021/03/25 08:51:33;;;;;;;17.63;8.60;;;;;;;13.88;51.24;96634.06;5027330;28;20750;-86
2021/03/25 08:54:05;;;;;;;16.50;8.30;;;;;;;13.99;51.21;96632.91;5025323;28;20479;-88
2021/03/25 08:56:41;;;;;;;20.53;9.47;;;;;;;13.94;51.14;96642.69;5026836;28;20398;-89
2021/03/25 08:59:24;;;;;;;18.43;8.70;;;;;;;13.94;50.99;96638.00;5029971;28;20858;-92
2021/03/25 09:05:46;;;;;;;12.10;8.47;;;;;;;14.13;50.94;96637.47;5035260;28;20435;-93
2021/03/25 09:12:09;;;;;;;16.47;8.90;;;;;;;14.24;50.70;96650.59;5072031;28;20434;-91
2021/03/25 09:14:36;;;;;;;12.63;7.50;;;;;;;14.19;51.09;96642.69;5071386;28;20477;-90
2021/03/25 09:17:06;;;;;;;18.40;8.50;;;;;;;14.22;51.29;96647.00;5073826;28;20490;-91
2021/03/25 09:19:41;;;;;;;16.10;9.20;;;;;;;14.16;51.65;96641.06;5074639;28;20457;-92
2021/03/25 09:22:08;;;;;;;19.40;9.93;;;;;;;14.20;51.78;96630.53;5074877;28;20422;-91
2021/03/25 09:24:35;;;;;;;19.97;9.40;;;;;;;14.40;51.60;96638.31;5079448;28;20426;-92
2021/03/25 09:27:07;;;;;;;12.20;8.60;;;;;;;14.48;51.20;96644.38;5079940;28;20518;-91
2021/03/25 09:30:03;;;;;;;15.57;8.87;;;;;;;14.62;50.91;96635.91;5079839;28;20458;-88
2021/03/25 09:32:39;;;;;;;10.47;7.60;;;;;;;14.72;50.96;96636.72;5073998;28;20446;-87
2021/03/25 09:35:44;;;;;;;16.80;8.40;;;;;;;14.95;50.47;96639.88;5064943;28;20493;-87
2021/03/25 09:38:25;;;;;;;16.47;8.63;;;;;;;15.14;50.41;96645.41;5065040;28;20421;-88
2021/03/25 09:40:53;;;;;;;12.10;7.37;;;;;;;15.29;49.78;96639.06;5064967;28;20481;-87
2021/03/25 09:43:40;;;;;;;18.13;8.10;;;;;;;15.22;49.73;96639.91;5066907;28;20442;-90
2021/03/25 09:46:33;;;;;;;17.40;8.80;;;;;;;15.37;50.00;96645.84;5067833;28;20418;-88
2021/03/25 09:49:53;;;;;;;16.93;7.90;;;;;;;15.53;49.35;96640.94;5065938;28;20470;-92
2021/03/25 09:53:15;;;;;;;11.83;8.27;;;;;;;15.76;49.32;96657.63;5070256;28;20509;-93
2021/03/25 10:08:52;;;;;;;11.13;7.27;;;;;;;16.12;46.71;96648.69;5009951;28;20539;-91
2021/03/25 10:11:44;;;;;;;19.03;8.10;;;;;;;15.94;47.58;96650.78;5004938;28;20441;-91
2021/03/25 10:14:54;;;;;;;13.03;7.47;;;;;;;15.57;44.54;96649.38;5005516;28;20473;-92
2021/03/25 10:17:43;;;;;;;12.53;8.37;;;;;;;15.53;46.78;96643.66;4995489;28;20459;-90
2021/03/25 10:20:34;;;;;;;12.20;9.90;;;;;;;15.49;47.89;96640.63;5006112;28;20453;-92
2021/03/25 10:23:01;;;;;;;16.47;9.93;;;;;;;15.33;49.08;96640.09;5005558;28;20441;-91
2021/03/25 10:25:30;;;;;;;16.60;8.77;;;;;;;15.41;46.36;96634.56;5009503;28;20421;-94
2021/03/25 10:28:01;;;;;;;15.40;8.30;;;;;;;15.49;47.07;96635.91;5012117;28;20469;-87
2021/03/25 10:30:32;;;;;;;12.70;8.00;;;;;;;15.45;46.64;96632.84;5004689;28;20469;-92
2021/03/25 10:32:59;;;;;;;11.20;8.20;;;;;;;15.36;46.21;96636.25;5006942;28;20445;-92
2021/03/25 10:35:29;;;;;;;14.27;7.57;;;;;;;15.27;45.42;96628.03;5005821;28;20508;-92
2021/03/25 10:37:59;;;;;;;14.70;9.53;;;;;;;15.28;44.86;96624.03;5006088;28;20434;-93
2021/03/25 10:40:32;;;;;;;13.10;8.03;;;;;;;15.18;45.47;96621.28;5005531;28;20417;-90
2021/03/25 10:43:01;;;;;;;12.13;6.70;;;;;;;15.16;44.89;96625.84;5004474;28;20425;-92
2021/03/25 10:45:46;;;;;;;16.03;6.43;;;;;;;15.15;43.74;96625.13;5005903;28;20441;-93
2021/03/25 10:48:20;;;;;;;9.23;6.27;;;;;;;15.27;43.50;96619.88;5009122;28;20588;-93
2021/03/25 10:50:49;;;;;;;14.13;8.00;;;;;;;15.35;43.45;96629.34;5005527;28;20425;-92
2021/03/25 10:53:18;;;;;;;9.03;7.10;;;;;;;15.36;43.26;96619.19;5006917;28;20430;-91
2021/03/25 10:55:48;;;;;;;9.43;6.30;;;;;;;15.32;42.39;96618.88;5011001;28;20511;-91
2021/03/25 10:58:23;;;;;;;13.10;6.43;;;;;;;15.45;41.31;96618.53;5005901;28;20541;-93
2021/03/25 11:00:50;;;;;;;10.80;6.00;;;;;;;15.33;43.48;96612.19;5009304;28;20456;-92
2021/03/25 11:03:27;;;;;;;14.03;6.97;;;;;;;15.08;44.04;96614.34;5004199;28;20441;-91
2021/03/25 11:05:56;;;;;;;14.77;6.40;;;;;;;14.93;42.57;96609.81;5001846;28;20444;-88
2021/03/25 11:08:31;;;;;;;14.03;7.77;;;;;;;14.93;43.82;96610.56;5002400;28;20491;-92
2021/03/25 11:11:00;;;;;;;14.40;7.40;;;;;;;15.23;42.91;96605.97;5005556;28;20461;-93
2021/03/25 11:13:27;;;;;;;16.77;7.63;;;;;;;15.27;43.22;96611.72;5004778;28;20783;-91
2021/03/25 11:16:00;;;;;;;18.73;7.93;;;;;;;15.18;43.62;96606.97;5004668;28;20472;-89
2021/03/25 11:18:32;;;;;;;15.60;8.23;;;;;;;15.43;42.85;96597.34;5003055;28;20464;-92
2021/03/25 11:20:59;;;;;;;12.20;6.80;;;;;;;15.30;42.59;96594.28;5006830;28;20442;-94
2021/03/25 11:23:28;;;;;;;22.93;7.17;;;;;;;15.67;42.52;96598.44;5006705;28;20512;-91
2021/03/25 11:25:56;;;;;;;17.13;7.10;;;;;;;15.73;42.24;96592.72;5004870;28;20531;-92
2021/03/25 11:28:24;;;;;;;13.93;7.20;;;;;;;15.80;42.48;96592.63;5003168;28;20444;-90
2021/03/25 11:30:52;;;;;;;12.37;7.20;;;;;;;15.83;43.08;96596.19;5003647;28;20451;-91
2021/03/25 11:33:38;;;;;;;12.33;7.00;;;;;;;15.93;42.74;96591.50;5003441;28;20503;-89
2021/03/25 11:36:06;;;;;;;15.47;7.37;;;;;;;15.90;41.80;96596.09;5004500;28;20484;-90
2021/03/25 11:38:36;;;;;;;17.70;8.10;;;;;;;15.87;42.28;96586.34;5009776;28;20456;-94
2021/03/25 11:41:05;;;;;;;19.00;8.50;;;;;;;15.91;41.93;96583.88;5016261;28;20430;-91
2021/03/25 11:43:47;;;;;;;12.23;7.03;;;;;;;16.14;41.95;96585.50;5006537;28;20425;-93
2021/03/25 11:46:29;;;;;;;13.30;8.37;;;;;;;16.06;42.36;96583.66;5005322;28;20432;-92
2021/03/25 11:49:04;;;;;;;10.87;6.83;;;;;;;16.35;41.40;96588.41;5005518;28;20452;-91
2021/03/25 11:51:30;;;;;;;12.40;6.50;;;;;;;16.40;41.26;96579.22;5004974;28;20479;-92
2021/03/25 11:53:58;;;;;;;14.27;7.53;;;;;;;16.40;41.46;96585.38;5005369;28;20487;-91
2021/03/25 11:56:28;;;;;;;15.13;8.30;;;;;;;16.48;41.04;96579.78;5004471;28;20520;-91
2021/03/25 11:59:01;;;;;;;12.77;7.60;;;;;;;16.24;41.31;96578.78;5006653;28;20476;-90
2021/03/25 12:01:29;;;;;;;18.60;7.60;;;;;;;16.29;40.91;96580.50;5009206;28;20496;-91
2021/03/25 12:03:59;;;;;;;12.60;7.10;;;;;;;16.43;40.96;96575.34;5007360;28;20444;-89
2021/03/25 12:06:27;;;;;;;12.57;7.87;;;;;;;16.45;40.58;96580.91;5008181;28;20520;-87
2021/03/25 12:09:10;;;;;;;11.30;6.73;;;;;;;16.46;40.11;96576.91;5007027;28;20536;-88
2021/03/25 12:11:36;;;;;;;11.83;6.73;;;;;;;16.31;40.13;96582.66;5007708;28;20484;-88
2021/03/25 12:14:04;;;;;;;18.63;7.30;;;;;;;16.48;40.44;96577.03;5010367;28;20492;-88
2021/03/25 12:16:32;;;;;;;13.13;8.03;;;;;;;16.64;40.42;96572.03;5009083;28;20476;-88
2021/03/25 12:19:00;;;;;;;15.93;8.40;;;;;;;16.69;39.87;96563.59;5011203;28;20468;-87